createdAt,value
2019-03-24T00:00:19.621Z,3.03
2019-03-24T00:02:48.982Z,3.63
2019-03-24T00:05:18.323Z,2.87
2019-03-24T00:07:47.687Z,3.67
2019-03-24T00:10:17.031Z,2.80
2019-03-24T00:12:46.373Z,3.60
2019-03-24T00:15:25.630Z,4.43
2019-03-24T00:17:46.787Z,4.43
2019-03-24T00:20:16.310Z,3.30
2019-03-24T00:22:45.841Z,3.23
2019-03-24T00:25:15.344Z,3.50
2019-03-24T00:27:44.693Z,3.13
2019-03-24T00:30:14.357Z,3.50
2019-03-24T00:32:43.701Z,3.10
2019-03-24T00:35:13.031Z,3.33
2019-03-24T00:37:42.369Z,3.03
2019-03-24T00:40:12.217Z,3.20
2019-03-24T00:42:41.552Z,2.90
2019-03-24T00:45:11.393Z,3.27
2019-03-24T00:47:40.757Z,4.47
2019-03-24T00:50:10.330Z,3.50
2019-03-24T00:52:39.659Z,3.73
2019-03-24T00:55:09.931Z,4.10
2019-03-24T00:57:39.266Z,3.73
2019-03-24T01:00:10.410Z,3.40
2019-03-24T01:02:39.738Z,2.93
2019-03-24T01:05:09.581Z,3.90
2019-03-24T01:07:38.981Z,3.93
2019-03-24T01:10:10.125Z,3.93
2019-03-24T01:12:39.450Z,3.70
2019-03-24T01:15:09.798Z,3.03
2019-03-24T01:17:39.496Z,3.60
2019-03-24T01:20:09.842Z,4.23
2019-03-24T01:22:39.180Z,3.43
2019-03-24T01:25:08.821Z,3.23
2019-03-24T01:27:38.152Z,3.03
2019-03-24T01:30:08.237Z,3.03
2019-03-24T01:32:37.646Z,3.73
2019-03-24T01:35:07.923Z,5.47
2019-03-24T01:37:37.248Z,4.10
2019-03-24T01:40:08.292Z,3.27
2019-03-24T01:42:37.625Z,4.07
2019-03-24T01:45:10.633Z,3.50
2019-03-24T01:47:40.040Z,3.13
2019-03-24T01:50:10.287Z,3.03
2019-03-24T01:52:39.620Z,3.20
2019-03-24T01:55:09.621Z,3.87
2019-03-24T01:57:38.957Z,3.43
2019-03-24T02:00:09.481Z,3.10
2019-03-24T02:02:38.806Z,3.70
2019-03-24T02:05:08.675Z,3.00
2019-03-24T02:07:38.010Z,4.47
2019-03-24T02:10:11.187Z,3.70
2019-03-24T02:12:40.522Z,3.23
2019-03-24T02:15:11.728Z,3.87
2019-03-24T02:17:41.060Z,2.80
2019-03-24T02:20:12.100Z,3.50
2019-03-24T02:22:41.432Z,3.50
2019-03-24T02:25:11.000Z,3.47
2019-03-24T02:27:40.331Z,3.33
2019-03-24T02:30:10.868Z,4.20
2019-03-24T02:32:40.204Z,5.03
2019-03-24T02:35:10.054Z,4.83
2019-03-24T02:37:39.383Z,5.33
2019-03-24T02:40:09.926Z,4.80
2019-03-24T02:42:39.256Z,5.60
2019-03-24T02:45:09.924Z,4.40
2019-03-24T02:47:39.237Z,5.20
2019-03-24T02:50:10.740Z,4.50
2019-03-24T02:52:40.077Z,4.37
2019-03-24T02:55:10.854Z,3.90
2019-03-24T02:57:40.190Z,3.70
2019-03-24T03:00:11.391Z,4.20
2019-03-24T03:02:40.729Z,4.80
2019-03-24T03:05:10.702Z,3.83
2019-03-24T03:07:40.078Z,4.60
2019-03-24T03:10:13.807Z,4.47
2019-03-24T03:12:43.189Z,4.40
2019-03-24T03:15:14.407Z,4.93
2019-03-24T03:17:43.739Z,4.07
2019-03-24T03:20:13.234Z,3.53
2019-03-24T03:22:42.585Z,5.57
2019-03-24T03:25:12.452Z,4.07
2019-03-24T03:27:41.783Z,3.83
2019-03-24T03:30:13.033Z,4.37
2019-03-24T03:32:42.365Z,3.90
2019-03-24T03:35:12.333Z,5.23
2019-03-24T03:37:41.658Z,4.10
2019-03-24T03:40:11.549Z,4.53
2019-03-24T03:42:40.839Z,4.70
2019-03-24T03:45:12.582Z,3.63
2019-03-24T03:47:41.909Z,3.83
2019-03-24T03:50:11.314Z,3.53
2019-03-24T03:52:40.642Z,3.30
2019-03-24T03:55:10.576Z,2.67
2019-03-24T03:57:39.918Z,2.83
2019-03-24T04:00:09.964Z,2.87
2019-03-24T04:02:39.568Z,3.20
2019-03-24T04:05:09.387Z,2.63
2019-03-24T04:07:38.726Z,3.83
2019-03-24T04:10:08.395Z,2.53
2019-03-24T04:12:37.722Z,3.37
2019-03-24T04:15:08.555Z,2.57
2019-03-24T04:17:37.885Z,2.90
2019-03-24T04:20:07.637Z,3.20
2019-03-24T04:22:36.975Z,3.20
2019-03-24T04:25:07.413Z,3.57
2019-03-24T04:27:36.711Z,2.70
2019-03-24T04:30:08.370Z,2.77
2019-03-24T04:32:37.690Z,2.83
2019-03-24T04:35:08.828Z,3.40
2019-03-24T04:37:38.164Z,3.20
2019-03-24T04:40:08.431Z,3.80
2019-03-24T04:42:37.781Z,3.80
2019-03-24T04:45:07.820Z,3.67
2019-03-24T04:47:37.155Z,3.50
2019-03-24T04:50:10.311Z,3.87
2019-03-24T04:52:39.643Z,3.80
2019-03-24T04:55:09.910Z,3.17
2019-03-24T04:57:39.239Z,4.23
2019-03-24T05:00:11.050Z,3.67
2019-03-24T05:02:40.434Z,3.73
2019-03-24T05:05:11.234Z,4.13
2019-03-24T05:07:41.703Z,4.20
2019-03-24T05:10:26.354Z,5.97
2019-03-24T05:12:55.858Z,6.37
2019-03-24T05:15:25.456Z,7.50
2019-03-24T05:17:54.792Z,7.20
2019-03-24T05:20:24.134Z,7.40
2019-03-24T05:22:53.474Z,6.63
2019-03-24T05:25:23.765Z,6.00
2019-03-24T05:27:53.231Z,5.10
2019-03-24T05:30:22.567Z,4.77
2019-03-24T05:32:51.916Z,3.90
2019-03-24T05:35:21.287Z,3.67
2019-03-24T05:37:50.615Z,3.37
2019-03-24T05:40:19.950Z,3.93
2019-03-24T05:42:49.277Z,3.33
2019-03-24T05:45:18.606Z,3.83
2019-03-24T05:47:47.937Z,3.47
2019-03-24T05:50:17.271Z,3.07
2019-03-24T05:52:46.604Z,2.90
2019-03-24T05:55:15.943Z,4.10
2019-03-24T05:57:45.273Z,3.67
2019-03-24T06:00:14.679Z,3.57
2019-03-24T06:02:44.010Z,3.30
2019-03-24T06:05:13.339Z,3.30
2019-03-24T06:07:42.693Z,3.30
2019-03-24T06:10:12.261Z,3.47
2019-03-24T06:12:41.604Z,3.33
2019-03-24T06:15:11.452Z,2.70
2019-03-24T06:17:47.802Z,3.33
2019-03-24T06:20:12.299Z,2.80
2019-03-24T06:22:41.639Z,3.80
2019-03-24T06:25:11.336Z,3.57
2019-03-24T06:27:40.653Z,3.20
2019-03-24T06:30:10.528Z,3.20
2019-03-24T06:32:40.979Z,3.70
2019-03-24T06:35:10.617Z,4.00
2019-03-24T06:37:39.953Z,4.30
2019-03-24T06:40:09.630Z,6.00
2019-03-24T06:42:38.956Z,6.00
2019-03-24T06:45:08.930Z,5.50
2019-03-24T06:47:38.261Z,5.73
2019-03-24T06:50:12.108Z,5.03
2019-03-24T06:52:41.447Z,5.43
2019-03-24T06:55:12.190Z,5.23
2019-03-24T06:57:41.519Z,6.77
2019-03-24T07:00:12.122Z,7.47
2019-03-24T07:02:41.552Z,7.90
2019-03-24T07:05:11.339Z,6.10
2019-03-24T07:07:40.668Z,5.33
2019-03-24T07:10:10.721Z,4.90
2019-03-24T07:12:40.064Z,3.67
2019-03-24T07:15:09.987Z,4.17
2019-03-24T07:17:39.379Z,2.87
2019-03-24T07:20:11.768Z,2.80
2019-03-24T07:22:41.099Z,4.13
2019-03-24T07:25:11.549Z,2.80
2019-03-24T07:27:40.879Z,3.83
2019-03-24T07:32:11.523Z,2.93
2019-03-24T07:34:40.853Z,3.40
2019-03-24T07:37:10.187Z,3.47
2019-03-24T07:39:39.524Z,3.10
2019-03-24T07:42:08.859Z,4.47
2019-03-24T07:44:38.210Z,3.13
2019-03-24T07:47:12.852Z,4.77
2019-03-24T07:49:43.181Z,4.07
2019-03-24T07:52:12.588Z,3.63
2019-03-24T07:54:41.957Z,2.43
2019-03-24T07:57:12.000Z,2.37
2019-03-24T07:59:41.312Z,2.60
2019-03-24T08:02:10.654Z,2.90
2019-03-24T08:04:40.047Z,2.60
2019-03-24T08:07:09.389Z,3.03
2019-03-24T08:09:38.732Z,3.23
2019-03-24T08:12:08.082Z,3.50
2019-03-24T08:14:37.423Z,2.73
2019-03-24T08:17:06.760Z,2.27
2019-03-24T08:19:36.098Z,2.70
2019-03-24T08:22:06.096Z,3.37
2019-03-24T08:24:35.749Z,3.27
2019-03-24T08:27:05.096Z,3.53
2019-03-24T08:29:34.446Z,3.20
2019-03-24T08:32:03.793Z,3.00
2019-03-24T08:34:33.117Z,2.60
2019-03-24T08:37:02.455Z,3.67
2019-03-24T08:39:31.802Z,2.43
2019-03-24T08:42:01.138Z,2.30
2019-03-24T08:44:30.477Z,4.17
2019-03-24T08:46:59.814Z,3.33
2019-03-24T08:49:29.154Z,4.00
2019-03-24T08:51:58.495Z,2.77
2019-03-24T08:54:27.837Z,2.30
2019-03-24T08:56:57.175Z,2.40
2019-03-24T08:59:26.508Z,1.80
2019-03-24T09:01:55.854Z,1.93
2019-03-24T09:04:25.193Z,1.87
2019-03-24T09:06:54.532Z,9.03
2019-03-24T09:09:23.874Z,2.40
2019-03-24T09:11:53.209Z,1.83
2019-03-24T09:14:22.566Z,2.00
2019-03-24T09:16:51.900Z,1.87
2019-03-24T09:19:21.237Z,1.97
2019-03-24T09:21:50.576Z,1.70
2019-03-24T09:24:19.936Z,1.97
2019-03-24T09:26:49.279Z,2.20
2019-03-24T09:29:18.628Z,2.83
2019-03-24T09:31:47.985Z,2.40
2019-03-24T09:34:18.862Z,2.27
2019-03-24T09:36:48.218Z,2.30
2019-03-24T09:39:17.555Z,1.83
2019-03-24T09:41:46.946Z,2.17
2019-03-24T09:44:16.294Z,2.07
2019-03-24T09:46:45.642Z,2.93
2019-03-24T09:49:15.089Z,2.30
2019-03-24T09:51:44.430Z,2.80
2019-03-24T09:54:13.789Z,2.40
2019-03-24T09:56:43.120Z,2.23
2019-03-24T09:59:12.460Z,2.67
2019-03-24T10:01:41.800Z,2.73
2019-03-24T10:04:11.161Z,2.57
2019-03-24T10:06:40.498Z,3.60
2019-03-24T10:09:09.838Z,2.43
2019-03-24T10:11:39.168Z,2.10
2019-03-24T10:14:08.517Z,2.73
2019-03-24T10:16:37.853Z,4.00
2019-03-24T10:19:13.878Z,2.33
2019-03-24T10:21:38.252Z,4.33
2019-03-24T10:24:07.999Z,2.70
2019-03-24T10:26:37.411Z,3.10
2019-03-24T10:29:06.747Z,3.70
2019-03-24T10:31:36.084Z,2.60
2019-03-24T10:34:05.416Z,3.27
2019-03-24T10:36:34.754Z,2.87
2019-03-24T10:39:05.061Z,3.30
2019-03-24T10:41:34.397Z,2.67
2019-03-24T10:44:03.745Z,2.70
2019-03-24T10:46:33.096Z,3.50
2019-03-24T10:49:02.429Z,4.57
2019-03-24T10:51:31.768Z,2.30
2019-03-24T10:54:01.111Z,2.90
2019-03-24T10:56:30.451Z,2.63
2019-03-24T10:58:59.793Z,3.97
2019-03-24T11:01:29.129Z,2.13
2019-03-24T11:03:58.469Z,3.20
2019-03-24T11:06:27.805Z,2.90
2019-03-24T11:08:57.141Z,2.60
2019-03-24T11:11:26.483Z,3.00
2019-03-24T11:13:55.821Z,2.27
2019-03-24T11:16:25.226Z,3.57
2019-03-24T11:18:54.563Z,2.90
2019-03-24T11:21:23.915Z,2.10
2019-03-24T11:23:53.255Z,2.30
2019-03-24T11:26:22.598Z,2.50
2019-03-24T11:28:51.941Z,2.03
2019-03-24T11:31:21.435Z,2.60
2019-03-24T11:33:50.778Z,3.00
2019-03-24T11:36:20.119Z,3.20
2019-03-24T11:38:49.459Z,3.10
2019-03-24T11:41:18.803Z,3.93
2019-03-24T11:43:48.143Z,2.90
2019-03-24T11:46:17.491Z,3.50
2019-03-24T11:48:46.836Z,3.87
2019-03-24T11:51:16.179Z,4.50
2019-03-24T11:53:45.520Z,3.27
2019-03-24T11:56:14.862Z,3.37
2019-03-24T11:58:44.321Z,3.00
2019-03-24T12:01:13.722Z,3.17
2019-03-24T12:03:43.069Z,3.00
2019-03-24T12:06:14.784Z,3.80
2019-03-24T12:08:43.481Z,3.10
2019-03-24T12:11:12.818Z,3.00
2019-03-24T12:13:42.159Z,3.53
2019-03-24T12:16:11.498Z,4.20
2019-03-24T12:18:40.840Z,4.03
2019-03-24T12:21:10.178Z,2.83
2019-03-24T12:23:39.530Z,3.20
2019-03-24T12:26:08.875Z,3.33
2019-03-24T12:28:38.214Z,3.03
2019-03-24T12:31:07.572Z,3.30
2019-03-24T12:33:36.915Z,3.30
2019-03-24T12:36:06.249Z,3.30
2019-03-24T12:38:35.598Z,4.60
2019-03-24T12:41:04.947Z,3.87
2019-03-24T12:43:34.274Z,3.93
2019-03-24T12:46:03.778Z,3.47
2019-03-24T12:48:33.128Z,4.20
2019-03-24T12:51:02.466Z,3.87
2019-03-24T12:53:31.810Z,2.97
2019-03-24T12:56:01.154Z,3.57
2019-03-24T12:58:30.498Z,2.37
2019-03-24T13:00:59.833Z,2.67
2019-03-24T13:03:29.179Z,2.83
2019-03-24T13:05:58.516Z,2.33
2019-03-24T13:08:27.873Z,1.33
2019-03-24T13:10:57.647Z,1.80
2019-03-24T13:13:27.053Z,1.70
2019-03-24T13:15:56.392Z,2.00
2019-03-24T13:18:25.739Z,1.80
2019-03-24T13:20:55.401Z,2.27
2019-03-24T13:23:24.768Z,1.60
2019-03-24T13:25:54.097Z,1.83
2019-03-24T13:28:23.429Z,1.97
2019-03-24T13:30:52.769Z,1.80
2019-03-24T13:33:22.133Z,1.80
2019-03-24T13:35:53.111Z,2.47
2019-03-24T13:38:22.470Z,2.00
2019-03-24T13:40:51.807Z,2.50
2019-03-24T13:43:21.147Z,1.90
2019-03-24T13:45:50.497Z,1.30
2019-03-24T13:48:19.833Z,1.93
2019-03-24T13:50:49.182Z,1.10
2019-03-24T13:53:18.544Z,2.20
2019-03-24T13:55:47.905Z,1.93
2019-03-24T13:58:17.250Z,1.47
2019-03-24T14:00:46.658Z,2.27
2019-03-24T14:03:16.001Z,1.50
2019-03-24T14:05:45.341Z,1.30
2019-03-24T14:08:14.677Z,1.70
2019-03-24T14:10:44.026Z,1.90
2019-03-24T14:13:13.364Z,1.83
2019-03-24T14:15:42.708Z,1.27
2019-03-24T14:18:12.047Z,1.10
2019-03-24T14:20:43.596Z,1.47
2019-03-24T14:23:12.445Z,1.50
2019-03-24T14:25:41.788Z,1.73
2019-03-24T14:28:11.133Z,1.77
2019-03-24T14:30:43.782Z,1.70
2019-03-24T14:33:13.562Z,1.40
2019-03-24T14:35:43.250Z,1.80
2019-03-24T14:38:12.588Z,1.23
2019-03-24T14:40:41.940Z,1.50
2019-03-24T14:43:11.279Z,1.40
2019-03-24T14:45:40.628Z,1.63
2019-03-24T14:48:09.957Z,1.30
2019-03-24T14:50:39.297Z,1.03
2019-03-24T14:53:08.632Z,0.93
2019-03-24T14:55:37.972Z,1.23
2019-03-24T14:58:07.580Z,1.37
2019-03-24T15:00:42.381Z,1.50
2019-03-24T15:03:12.045Z,1.60
2019-03-24T15:05:41.744Z,1.53
2019-03-24T15:08:11.684Z,1.60
2019-03-24T15:10:41.028Z,1.17
2019-03-24T15:13:10.433Z,1.33
2019-03-24T15:15:39.774Z,1.23
2019-03-24T15:18:09.111Z,1.30
2019-03-24T15:24:44.461Z,1.60
2019-03-24T15:27:13.814Z,1.77
2019-03-24T15:29:43.160Z,2.80
2019-03-24T15:36:12.760Z,1.10
2019-03-24T15:38:42.102Z,1.13
2019-03-24T15:41:11.442Z,1.70
2019-03-24T15:43:41.196Z,1.53
2019-03-24T15:46:10.603Z,1.87
2019-03-24T15:48:39.947Z,1.40
2019-03-24T15:51:16.904Z,1.60
2019-03-24T15:53:40.673Z,1.30
2019-03-24T15:56:10.027Z,1.90
2019-03-24T15:58:39.361Z,1.70
2019-03-24T16:01:08.704Z,1.33
2019-03-24T16:03:38.045Z,1.90
2019-03-24T16:09:30.730Z,2.40
2019-03-24T16:12:00.152Z,2.30
2019-03-24T16:14:29.490Z,1.93
2019-03-24T16:16:58.842Z,2.23
2019-03-24T16:19:28.188Z,1.90
2019-03-24T16:21:57.528Z,2.00
2019-03-24T16:24:26.878Z,1.87
2019-03-24T16:26:56.217Z,3.43
2019-03-24T16:29:25.556Z,1.60
2019-03-24T16:31:54.911Z,1.20
2019-03-24T16:34:24.264Z,2.80
2019-03-24T16:36:53.589Z,1.60
2019-03-24T16:39:22.986Z,1.53
2019-03-24T16:41:52.428Z,1.67
2019-03-24T16:44:21.774Z,1.43
2019-03-24T16:46:51.145Z,1.30
2019-03-24T16:49:20.486Z,1.70
2019-03-24T16:51:49.833Z,1.50
2019-03-24T16:54:19.259Z,1.30
2019-03-24T16:56:48.649Z,1.53
2019-03-24T16:59:18.022Z,2.70
2019-03-24T17:01:47.433Z,1.37
2019-03-24T17:04:16.779Z,2.43
2019-03-24T17:06:46.130Z,1.90
2019-03-24T17:09:15.468Z,1.60
2019-03-24T17:11:44.811Z,1.53
2019-03-24T17:14:14.151Z,1.53
2019-03-24T17:16:43.505Z,1.57
2019-03-24T17:19:12.844Z,2.30
2019-03-24T17:21:49.886Z,1.30
2019-03-24T17:24:13.295Z,1.07
2019-03-24T17:26:42.633Z,1.47
2019-03-24T17:29:11.975Z,2.70
2019-03-24T17:31:41.331Z,2.10
2019-03-24T17:34:10.747Z,1.40
2019-03-24T17:36:40.077Z,1.67
2019-03-24T17:39:09.486Z,2.30
2019-03-24T17:41:38.842Z,1.77
2019-03-24T17:44:08.173Z,1.43
2019-03-24T17:46:37.517Z,1.23
2019-03-24T17:49:06.850Z,1.03
2019-03-24T17:51:36.185Z,1.80
2019-03-24T17:54:05.525Z,2.33
2019-03-24T17:56:34.860Z,2.10
2019-03-24T17:59:04.374Z,2.20
2019-03-24T18:01:33.715Z,4.10
2019-03-24T18:04:03.049Z,1.87
2019-03-24T18:06:32.390Z,3.30
2019-03-24T18:09:01.722Z,2.90
2019-03-24T18:11:31.063Z,2.27
2019-03-24T18:14:00.399Z,2.57
2019-03-24T18:16:29.744Z,3.43
2019-03-24T18:18:59.084Z,2.93
2019-03-24T18:21:28.417Z,2.30
2019-03-24T18:23:57.768Z,1.80
2019-03-24T18:26:27.675Z,3.97
2019-03-24T18:28:57.004Z,3.00
2019-03-24T18:31:26.344Z,2.13
2019-03-24T18:33:55.695Z,3.83
2019-03-24T18:36:25.034Z,2.90
2019-03-24T18:38:54.367Z,2.50
2019-03-24T18:41:23.781Z,3.50
2019-03-24T18:43:53.118Z,2.43
2019-03-24T18:46:22.478Z,3.67
2019-03-24T18:48:51.881Z,2.93
2019-03-24T18:51:21.340Z,1.83
2019-03-24T18:53:50.690Z,2.47
2019-03-24T18:56:20.032Z,2.57
2019-03-24T18:58:49.467Z,2.40
2019-03-24T19:01:18.950Z,1.97
2019-03-24T19:03:48.292Z,2.20
2019-03-24T19:06:17.632Z,1.90
2019-03-24T19:08:46.973Z,1.60
2019-03-24T19:11:16.313Z,2.40
2019-03-24T19:13:45.651Z,2.30
2019-03-24T19:16:14.984Z,1.60
2019-03-24T19:18:44.324Z,2.23
2019-03-24T19:21:13.657Z,2.90
2019-03-24T19:23:42.987Z,2.47
2019-03-24T19:26:12.339Z,1.70
2019-03-24T19:28:41.673Z,2.30
2019-03-24T19:31:11.015Z,2.13
2019-03-24T19:33:40.423Z,2.10
2019-03-24T19:36:09.921Z,2.50
2019-03-24T19:38:41.677Z,2.00
2019-03-24T19:41:11.339Z,2.10
2019-03-24T19:43:40.676Z,1.80
2019-03-24T19:46:10.018Z,2.07
2019-03-24T19:48:39.348Z,2.30
2019-03-24T19:51:08.685Z,2.03
2019-03-24T19:53:38.128Z,2.20
2019-03-24T19:56:07.460Z,2.33
2019-03-24T19:58:36.791Z,2.27
2019-03-24T20:01:06.196Z,1.93
2019-03-24T20:03:35.529Z,2.03
2019-03-24T20:06:04.865Z,2.10
2019-03-24T20:08:34.201Z,1.93
2019-03-24T20:11:03.533Z,2.13
2019-03-24T20:13:34.300Z,1.80
2019-03-24T20:16:03.640Z,2.27
2019-03-24T20:18:32.973Z,1.50
2019-03-24T20:21:02.616Z,3.00
2019-03-24T20:23:31.949Z,2.20
2019-03-24T20:26:01.289Z,1.97
2019-03-24T20:28:30.626Z,2.97
2019-03-24T20:30:59.959Z,2.20
2019-03-24T20:33:29.297Z,2.27
2019-03-24T20:35:58.625Z,2.27
2019-03-24T20:38:27.963Z,1.93
2019-03-24T20:40:57.308Z,1.97
2019-03-24T20:43:26.641Z,1.93
2019-03-24T20:45:55.979Z,2.10
2019-03-24T20:48:25.318Z,2.03
2019-03-24T20:50:54.645Z,1.60
2019-03-24T20:53:23.986Z,1.43
2019-03-24T20:55:53.324Z,2.03
2019-03-24T20:58:22.727Z,2.23
2019-03-24T21:00:52.061Z,1.63
2019-03-24T21:03:21.397Z,1.63
2019-03-24T21:05:50.733Z,2.47
2019-03-24T21:08:20.075Z,2.03
2019-03-24T21:10:49.416Z,1.97
2019-03-24T21:13:19.115Z,3.27
2019-03-24T21:15:48.475Z,1.83
2019-03-24T21:18:17.815Z,2.10
2019-03-24T21:20:47.144Z,3.23
2019-03-24T21:23:16.484Z,2.17
2019-03-24T21:25:45.862Z,2.00
2019-03-24T21:28:15.204Z,1.60
2019-03-24T21:30:44.609Z,2.03
2019-03-24T21:33:13.940Z,1.53
2019-03-24T21:35:43.280Z,2.33
2019-03-24T21:38:12.776Z,2.33
2019-03-24T21:40:42.113Z,1.67
2019-03-24T21:43:11.445Z,1.97
2019-03-24T21:45:40.787Z,1.40
2019-03-24T21:48:10.122Z,2.07
2019-03-24T21:50:40.440Z,1.50
2019-03-24T21:53:09.772Z,2.30
2019-03-24T21:55:39.124Z,1.73
2019-03-24T21:58:08.461Z,1.60
2019-03-24T22:00:38.906Z,1.90
2019-03-24T22:03:08.518Z,2.60
2019-03-24T22:05:38.096Z,1.87
2019-03-24T22:08:07.500Z,2.23
2019-03-24T22:10:36.873Z,2.67
2019-03-24T22:13:06.249Z,1.70
2019-03-24T22:15:35.575Z,2.03
2019-03-24T22:18:05.318Z,2.53
2019-03-24T22:20:34.651Z,1.90
2019-03-24T22:23:03.989Z,2.00
2019-03-24T22:25:33.539Z,2.23
2019-03-24T22:28:02.870Z,2.47
2019-03-24T22:30:32.207Z,2.17
2019-03-24T22:33:01.541Z,2.33
2019-03-24T22:35:30.889Z,2.03
2019-03-24T22:38:00.227Z,1.97
2019-03-24T22:40:29.566Z,2.13
2019-03-24T22:42:59.011Z,1.80
2019-03-24T22:45:28.356Z,1.83
2019-03-24T22:47:57.695Z,1.77
2019-03-24T22:50:27.031Z,1.97
2019-03-24T22:52:56.360Z,2.27
2019-03-24T22:55:25.728Z,2.90
2019-03-24T22:57:55.061Z,1.97
2019-03-24T23:00:42.255Z,2.40
2019-03-24T23:03:11.963Z,1.73
2019-03-24T23:05:41.307Z,1.80
2019-03-24T23:08:10.640Z,1.63
2019-03-24T23:10:39.972Z,2.27
2019-03-24T23:13:09.304Z,1.80
2019-03-24T23:15:38.636Z,2.07
2019-03-24T23:18:07.977Z,1.40
2019-03-24T23:20:37.321Z,2.53
2019-03-24T23:23:06.660Z,2.30
2019-03-24T23:25:35.992Z,2.20
2019-03-24T23:28:05.672Z,2.27
2019-03-24T23:30:35.018Z,1.93
2019-03-24T23:33:04.616Z,2.43
2019-03-24T23:35:33.961Z,2.93
2019-03-24T23:38:03.301Z,2.27
2019-03-24T23:40:32.628Z,2.30
2019-03-24T23:43:01.966Z,1.87
2019-03-24T23:45:31.309Z,2.37
2019-03-24T23:48:00.640Z,2.00
2019-03-24T23:50:29.986Z,2.77
2019-03-24T23:52:59.326Z,2.17
2019-03-24T23:55:28.668Z,2.50
2019-03-24T23:57:58.000Z,1.80
